Time;durP1;ratioP1;P1;durP2;ratioP2;P2;SDS_P1;SDS_P2;PMS_P1;PMS_P2;Temp;Humidity;BMP_temperature;BMP_pressure;BME280_temperature;BME280_humidity;BME280_pressure;Samples;Min_cycle;Max_cycle;Signal;HPM_P1;HPM_P2
2023/03/27 00:02:02;;;;;;;2.00;1.08;;;21.20;54.20;;;;;;5093585;28;20602;-51
2023/03/27 00:04:33;;;;;;;2.47;0.98;;;21.20;54.10;;;;;;5073885;28;20654;-54
2023/03/27 00:07:04;;;;;;;2.17;1.10;;;21.20;54.10;;;;;;5074779;28;20198;-54
2023/03/27 00:09:36;;;;;;;2.63;1.20;;;21.30;54.20;;;;;;5084251;28;20265;-53
2023/03/27 00:12:09;;;;;;;1.63;1.00;;;21.30;54.10;;;;;;5074325;28;20199;-50
2023/03/27 00:14:40;;;;;;;1.60;1.00;;;21.30;54.10;;;;;;5093915;28;20197;-54
2023/03/27 00:17:11;;;;;;;1.17;1.08;;;21.40;54.20;;;;;;5094322;28;20607;-51
2023/03/27 00:19:41;;;;;;;2.00;1.10;;;21.40;54.10;;;;;;5091604;28;20221;-53
2023/03/27 00:22:12;;;;;;;1.55;1.00;;;21.40;54.10;;;;;;5073870;28;20206;-51
2023/03/27 00:24:43;;;;;;;3.58;1.20;;;21.40;54.00;;;;;;5084384;28;20194;-55
2023/03/27 00:27:15;;;;;;;3.47;1.05;;;21.50;54.00;;;;;;5087801;28;20194;-51
2023/03/27 00:29:46;;;;;;;2.53;1.00;;;21.50;54.00;;;;;;5087492;28;20226;-54
2023/03/27 00:32:16;;;;;;;2.85;1.00;;;21.50;54.00;;;;;;5074607;28;20203;-52
2023/03/27 00:34:47;;;;;;;2.67;1.17;;;21.50;53.90;;;;;;5087396;28;20256;-52
2023/03/27 00:37:18;;;;;;;1.88;0.85;;;21.50;53.90;;;;;;5092639;28;20186;-53
2023/03/27 00:39:49;;;;;;;0.98;0.70;;;21.50;53.90;;;;;;5093176;28;20221;-54
2023/03/27 00:42:25;;;;;;;1.38;0.98;;;21.60;53.90;;;;;;5093161;28;20198;-51
2023/03/27 00:44:56;;;;;;;1.35;0.75;;;21.70;53.90;;;;;;5076178;28;20198;-54
2023/03/27 00:47:33;;;;;;;1.90;1.08;;;21.70;53.90;;;;;;5074512;28;20195;-54
2023/03/27 00:50:07;;;;;;;1.50;0.90;;;21.70;53.90;;;;;;5093089;28;20238;-52
2023/03/27 00:52:39;;;;;;;0.98;0.80;;;21.70;53.80;;;;;;5095926;28;20227;-55
2023/03/27 00:55:13;;;;;;;1.05;0.75;;;21.70;53.80;;;;;;5072684;28;20593;-51
2023/03/27 00:57:48;;;;;;;1.85;1.00;;;21.80;53.80;;;;;;5078803;28;20226;-52
2023/03/27 01:00:19;;;;;;;2.35;0.88;;;21.80;53.80;;;;;;5093051;28;20201;-51
2023/03/27 01:02:52;;;;;;;2.63;0.80;;;21.80;53.80;;;;;;5091484;28;20245;-50
2023/03/27 01:05:23;;;;;;;1.73;0.82;;;21.80;53.80;;;;;;5072895;28;20611;-54
2023/03/27 01:07:55;;;;;;;2.53;0.95;;;21.90;53.80;;;;;;5089600;28;20194;-53
2023/03/27 01:10:37;;;;;;;2.83;0.65;;;21.90;53.80;;;;;;5092135;28;20276;-52
2023/03/27 01:13:23;;;;;;;1.52;0.80;;;21.90;53.80;;;;;;5092015;28;20225;-53
2023/03/27 01:16:00;;;;;;;1.85;0.77;;;21.90;53.80;;;;;;5071856;28;20538;-53
2023/03/27 01:18:46;;;;;;;1.67;0.70;;;22.00;53.70;;;;;;5080251;28;20708;-55
2023/03/27 01:21:53;;;;;;;2.17;0.80;;;22.00;53.80;;;;;;5072592;28;20195;-54
2023/03/27 01:24:59;;;;;;;2.85;0.88;;;22.10;53.80;;;;;;5016946;28;20340;-51
2023/03/27 01:27:53;;;;;;;1.15;0.70;;;22.10;53.70;;;;;;5088491;28;20584;-54
2023/03/27 01:30:30;;;;;;;0.90;0.77;;;22.10;53.70;;;;;;5073587;28;20552;-49
2023/03/27 01:33:28;;;;;;;1.33;0.57;;;22.10;53.70;;;;;;5091647;28;20218;-54
2023/03/27 01:36:19;;;;;;;1.05;0.68;;;22.10;53.70;;;;;;5092202;28;20194;-54
2023/03/27 01:39:27;;;;;;;1.52;0.60;;;22.20;53.70;;;;;;5088644;28;20229;-53
2023/03/27 01:42:05;;;;;;;2.30;0.95;;;22.20;53.60;;;;;;5067125;28;20206;-53
2023/03/27 01:44:45;;;;;;;0.85;0.73;;;22.20;53.60;;;;;;5078277;28;20655;-50
2023/03/27 01:47:35;;;;;;;2.13;0.90;;;22.30;53.60;;;;;;5071538;28;20331;-54
2023/03/27 01:50:13;;;;;;;1.25;0.63;;;22.30;53.60;;;;;;5071753;28;20199;-54
2023/03/27 01:52:48;;;;;;;1.40;0.80;;;22.30;53.60;;;;;;5071964;28;20539;-54
2023/03/27 01:55:23;;;;;;;1.13;0.77;;;22.30;53.60;;;;;;5091612;28;20193;-52
2023/03/27 01:58:02;;;;;;;1.52;0.77;;;22.30;53.50;;;;;;5074608;28;20213;-53
2023/03/27 02:00:34;;;;;;;1.45;0.60;;;22.40;53.60;;;;;;5091414;28;20213;-50
2023/03/27 02:03:09;;;;;;;1.48;0.70;;;22.40;53.50;;;;;;5087069;28;20201;-57
2023/03/27 02:05:46;;;;;;;1.45;1.00;;;22.40;53.50;;;;;;5091756;28;20196;-54
2023/03/27 02:08:20;;;;;;;2.70;0.73;;;22.40;53.50;;;;;;5091683;28;20712;-53
2023/03/27 02:10:55;;;;;;;1.98;0.82;;;22.50;53.60;;;;;;5075616;28;20221;-53
2023/03/27 02:13:30;;;;;;;0.80;0.63;;;22.50;53.50;;;;;;5091737;28;20707;-53
2023/03/27 02:16:03;;;;;;;2.22;0.90;;;22.50;53.40;;;;;;5091985;28;20196;-53
2023/03/27 02:18:38;;;;;;;1.35;0.70;;;22.60;53.50;;;;;;5088559;28;20214;-49
2023/03/27 02:21:09;;;;;;;2.30;0.90;;;22.60;53.50;;;;;;5091307;28;20205;-51
2023/03/27 02:23:40;;;;;;;0.70;0.60;;;22.60;53.50;;;;;;5086111;28;20233;-50
2023/03/27 02:26:14;;;;;;;2.63;0.77;;;22.60;53.40;;;;;;5090782;28;20225;-54
2023/03/27 02:29:06;;;;;;;1.15;0.60;;;22.70;53.40;;;;;;5090869;28;20229;-52
2023/03/27 02:31:49;;;;;;;2.30;0.73;;;22.70;53.40;;;;;;5079017;28;20206;-53
2023/03/27 02:34:40;;;;;;;1.13;0.65;;;22.70;53.30;;;;;;5069903;28;20230;-49
2023/03/27 02:37:20;;;;;;;1.50;0.80;;;22.80;53.30;;;;;;5070870;28;20199;-52
2023/03/27 02:39:58;;;;;;;1.17;0.75;;;22.80;53.20;;;;;;5071225;28;20297;-51
2023/03/27 02:42:40;;;;;;;1.38;0.63;;;22.80;53.20;;;;;;5073896;28;20685;-51
2023/03/27 02:45:19;;;;;;;0.82;0.68;;;22.90;53.30;;;;;;5080655;28;20205;-49
2023/03/27 02:47:57;;;;;;;2.13;0.80;;;22.90;53.20;;;;;;5071080;28;20187;-49
2023/03/27 02:50:32;;;;;;;1.17;0.70;;;22.90;53.30;;;;;;5071255;28;20199;-49
2023/03/27 02:53:04;;;;;;;2.40;0.80;;;22.90;53.30;;;;;;5071169;28;20198;-52
2023/03/27 02:55:40;;;;;;;1.13;0.50;;;23.00;53.30;;;;;;5088800;28;20680;-51
2023/03/27 02:58:15;;;;;;;1.33;0.70;;;23.00;53.30;;;;;;5077344;28;20291;-51
2023/03/27 03:00:50;;;;;;;1.00;0.60;;;23.00;53.30;;;;;;5070339;28;20206;-50
2023/03/27 03:03:26;;;;;;;0.90;0.77;;;23.10;53.40;;;;;;5080549;28;20209;-50
2023/03/27 03:05:58;;;;;;;1.35;0.70;;;23.10;53.40;;;;;;5075102;28;20194;-51
2023/03/27 03:08:30;;;;;;;0.90;0.60;;;23.10;53.40;;;;;;5070697;28;20211;-49
2023/03/27 03:11:06;;;;;;;2.38;0.80;;;23.20;53.40;;;;;;5070644;28;20248;-50
2023/03/27 03:13:36;;;;;;;1.35;0.63;;;23.20;53.40;;;;;;5070402;28;20245;-52
2023/03/27 03:16:10;;;;;;;1.30;0.68;;;23.20;53.40;;;;;;5070761;28;20213;-50
2023/03/27 03:18:41;;;;;;;2.03;0.80;;;23.30;53.40;;;;;;5072467;28;20258;-54
2023/03/27 03:21:12;;;;;;;3.25;0.65;;;23.30;53.40;;;;;;5092011;28;20218;-52
2023/03/27 03:23:42;;;;;;;1.25;0.68;;;23.30;53.40;;;;;;5078327;28;20191;-52
2023/03/27 03:26:13;;;;;;;1.85;0.75;;;23.40;53.50;;;;;;5078177;28;20205;-53
2023/03/27 03:28:46;;;;;;;1.65;0.65;;;23.40;53.50;;;;;;5078939;28;20210;-53
2023/03/27 03:31:18;;;;;;;2.15;0.75;;;23.40;53.40;;;;;;5088808;28;20199;-50
2023/03/27 03:33:49;;;;;;;1.08;0.60;;;23.50;53.40;;;;;;5090755;28;20225;-52
2023/03/27 03:36:20;;;;;;;1.73;0.65;;;23.50;53.40;;;;;;5091145;28;20206;-52
2023/03/27 03:38:50;;;;;;;1.58;0.80;;;23.60;53.30;;;;;;5097102;28;20741;-55
2023/03/27 03:41:21;;;;;;;0.90;0.50;;;23.60;53.30;;;;;;5110775;28;20205;-57
2023/03/27 03:43:52;;;;;;;1.77;0.88;;;23.70;53.30;;;;;;5079629;28;20195;-53
2023/03/27 03:46:24;;;;;;;1.90;0.85;;;23.70;53.30;;;;;;5073517;28;20198;-52
2023/03/27 03:48:55;;;;;;;1.67;0.80;;;23.70;53.20;;;;;;5080698;28;20581;-54
2023/03/27 03:51:25;;;;;;;1.45;0.68;;;23.80;53.20;;;;;;5094636;28;20193;-53
2023/03/27 03:53:56;;;;;;;1.10;0.60;;;23.80;53.20;;;;;;5081556;28;20218;-56
2023/03/27 03:56:28;;;;;;;1.23;0.80;;;23.80;53.10;;;;;;5087878;28;20670;-53
2023/03/27 03:58:59;;;;;;;1.08;0.70;;;23.90;53.10;;;;;;5080045;28;20279;-54
2023/03/27 04:01:32;;;;;;;1.38;0.60;;;23.90;53.10;;;;;;5094168;28;20635;-55
2023/03/27 04:04:03;;;;;;;1.20;0.60;;;23.90;53.10;;;;;;5085576;28;20718;-55
2023/03/27 04:06:36;;;;;;;2.60;0.90;;;24.00;53.10;;;;;;5082608;28;20230;-57
2023/03/27 04:09:07;;;;;;;1.20;0.70;;;24.00;53.00;;;;;;5075194;28;20233;-55
2023/03/27 04:11:38;;;;;;;1.55;0.70;;;24.10;53.10;;;;;;5073348;28;20191;-53
2023/03/27 04:14:08;;;;;;;1.55;0.70;;;24.10;53.00;;;;;;5080745;28;20222;-53
2023/03/27 04:16:41;;;;;;;1.25;0.70;;;24.20;53.10;;;;;;5092905;28;20195;-54
2023/03/27 04:19:12;;;;;;;1.38;0.68;;;24.20;53.60;;;;;;5081017;28;20210;-51
2023/03/27 04:21:43;;;;;;;1.50;0.75;;;24.20;53.00;;;;;;5094049;28;20209;-53
2023/03/27 04:24:13;;;;;;;1.48;0.75;;;24.30;52.90;;;;;;5088954;28;20260;-55
2023/03/27 04:26:44;;;;;;;1.20;0.80;;;24.30;52.80;;;;;;5084754;28;20207;-57
2023/03/27 04:29:15;;;;;;;2.80;0.90;;;24.30;52.80;;;;;;5091804;28;20217;-52
2023/03/27 04:31:47;;;;;;;0.93;0.82;;;24.30;52.70;;;;;;5093984;28;20190;-55
2023/03/27 04:34:19;;;;;;;0.85;0.80;;;24.40;52.70;;;;;;5093440;28;20682;-54
2023/03/27 04:36:49;;;;;;;1.15;0.60;;;24.40;52.60;;;;;;5072966;28;20190;-53
2023/03/27 04:39:21;;;;;;;1.23;0.70;;;24.40;52.60;;;;;;5088592;28;20214;-56
2023/03/27 04:41:52;;;;;;;1.83;0.85;;;24.50;52.60;;;;;;5093575;28;20366;-51
2023/03/27 04:44:23;;;;;;;1.52;0.88;;;24.50;52.50;;;;;;5093180;28;20194;-56
2023/03/27 04:46:56;;;;;;;1.80;0.77;;;24.50;52.50;;;;;;5093694;28;20650;-53
2023/03/27 04:49:27;;;;;;;1.10;0.63;;;24.60;52.50;;;;;;5092714;28;20673;-52
2023/03/27 04:51:58;;;;;;;1.92;0.73;;;24.60;52.40;;;;;;5091638;28;20562;-53
2023/03/27 04:54:30;;;;;;;1.42;0.80;;;24.70;52.50;;;;;;5081427;28;20222;-51
2023/03/27 04:57:02;;;;;;;1.85;0.85;;;24.70;52.30;;;;;;5080947;28;20214;-55
2023/03/27 04:59:33;;;;;;;1.60;0.70;;;24.70;52.30;;;;;;5081082;28;20214;-52
2023/03/27 05:02:07;;;;;;;1.75;0.90;;;24.70;52.20;;;;;;5083915;28;20195;-52
2023/03/27 05:04:37;;;;;;;1.05;0.70;;;24.80;52.20;;;;;;5081694;28;20291;-52
2023/03/27 05:07:09;;;;;;;1.35;0.75;;;24.80;52.20;;;;;;5086961;28;20597;-56
2023/03/27 05:09:39;;;;;;;1.48;0.80;;;24.80;52.10;;;;;;5087954;28;20214;-54
2023/03/27 05:12:10;;;;;;;2.22;1.00;;;24.90;52.10;;;;;;5072443;28;20190;-54
2023/03/27 05:14:41;;;;;;;1.77;0.70;;;24.90;52.10;;;;;;5080873;28;20225;-52
2023/03/27 05:17:14;;;;;;;1.15;0.75;;;24.90;52.10;;;;;;5092288;28;20820;-55
2023/03/27 05:19:45;;;;;;;3.40;0.95;;;24.90;52.00;;;;;;5084850;28;20242;-52
2023/03/27 05:22:15;;;;;;;1.13;0.70;;;24.90;52.00;;;;;;5092670;28;20229;-54
2023/03/27 05:24:46;;;;;;;1.73;0.70;;;24.90;51.90;;;;;;5092386;28;20190;-56
2023/03/27 05:27:18;;;;;;;1.58;0.60;;;25.00;52.00;;;;;;5079349;28;20206;-52
2023/03/27 05:29:48;;;;;;;0.90;0.60;;;25.00;51.90;;;;;;5080662;28;20211;-57
2023/03/27 05:32:21;;;;;;;1.58;1.02;;;25.00;51.90;;;;;;5090703;28;20200;-54
2023/03/27 05:34:53;;;;;;;1.55;0.80;;;25.10;51.90;;;;;;5100515;28;20584;-53
2023/03/27 05:37:24;;;;;;;1.55;0.85;;;25.10;51.90;;;;;;5112588;28;20193;-52
2023/03/27 05:39:55;;;;;;;2.22;0.80;;;25.10;51.80;;;;;;5112513;28;20255;-54
2023/03/27 05:42:26;;;;;;;1.08;0.70;;;25.10;51.80;;;;;;5105183;28;20903;-52
2023/03/27 05:45:04;;;;;;;1.58;0.60;;;25.10;51.80;;;;;;5091571;28;20638;-55
2023/03/27 05:47:48;;;;;;;3.72;1.25;;;25.20;51.90;;;;;;5074706;28;20285;-60
2023/03/27 05:50:19;;;;;;;7.90;1.90;;;25.20;51.70;;;;;;5083601;28;20201;-59
2023/03/27 05:52:55;;;;;;;5.65;1.63;;;25.10;51.50;;;;;;5079894;28;20226;-55
2023/03/27 05:55:26;;;;;;;10.25;1.77;;;25.10;51.50;;;;;;5084066;28;20228;-55
2023/03/27 05:57:57;;;;;;;4.38;1.45;;;25.00;52.10;;;;;;5080330;28;21429;-53
2023/03/27 06:00:30;;;;;;;4.50;1.38;;;24.90;52.30;;;;;;5077167;28;20648;-53
2023/03/27 06:03:04;;;;;;;3.92;1.50;;;24.90;52.50;;;;;;5080152;28;20187;-52
2023/03/27 06:05:35;;;;;;;5.63;1.33;;;24.90;52.60;;;;;;5091695;28;20225;-54
2023/03/27 06:08:06;;;;;;;3.58;1.30;;;24.90;52.60;;;;;;5091315;28;20222;-52
2023/03/27 06:10:37;;;;;;;4.45;1.30;;;24.90;52.60;;;;;;5091564;28;20645;-51
2023/03/27 06:13:10;;;;;;;3.70;1.20;;;24.90;52.60;;;;;;5091678;28;20259;-50
2023/03/27 06:15:42;;;;;;;3.15;1.25;;;24.90;52.60;;;;;;5089897;28;20249;-48
2023/03/27 06:18:14;;;;;;;3.83;1.15;;;24.90;52.60;;;;;;5085557;28;20214;-50
2023/03/27 06:20:45;;;;;;;4.28;1.35;;;25.00;52.70;;;;;;5085317;28;20197;-53
2023/03/27 06:23:16;;;;;;;4.95;1.33;;;24.90;52.60;;;;;;5077397;28;20209;-49
2023/03/27 06:25:46;;;;;;;3.58;1.25;;;25.00;52.60;;;;;;5071828;28;20681;-48
2023/03/27 06:28:17;;;;;;;3.97;1.35;;;25.00;52.50;;;;;;5090730;28;20213;-52
2023/03/27 06:30:48;;;;;;;3.88;1.33;;;25.00;52.50;;;;;;5083319;28;20208;-51
2023/03/27 06:33:21;;;;;;;4.35;0.93;;;25.00;52.50;;;;;;5111883;28;20703;-52
2023/03/27 06:35:51;;;;;;;3.70;1.38;;;25.00;52.50;;;;;;5111699;28;20221;-49
2023/03/27 06:38:22;;;;;;;2.80;1.08;;;25.00;52.40;;;;;;5111640;28;20220;-54
2023/03/27 06:40:53;;;;;;;3.80;1.35;;;25.00;52.40;;;;;;5106304;27;20560;-51
2023/03/27 06:43:23;;;;;;;3.45;1.05;;;25.00;52.40;;;;;;5078036;28;20199;-49
2023/03/27 06:45:54;;;;;;;2.75;1.02;;;25.00;52.40;;;;;;5071355;28;20199;-50
2023/03/27 06:48:27;;;;;;;2.78;0.98;;;25.00;52.40;;;;;;5071239;28;20214;-53
2023/03/27 06:50:58;;;;;;;2.28;0.80;;;24.90;52.30;;;;;;5070690;28;20205;-54
2023/03/27 06:53:28;;;;;;;2.20;1.08;;;25.00;52.30;;;;;;5070845;28;20195;-49
2023/03/27 06:55:59;;;;;;;3.38;1.10;;;25.00;52.30;;;;;;5073083;28;20272;-54
2023/03/27 06:58:30;;;;;;;1.55;1.15;;;25.00;52.30;;;;;;5090807;28;20214;-52
2023/03/27 07:01:01;;;;;;;1.92;0.98;;;24.90;52.10;;;;;;5090563;28;20210;-51
2023/03/27 07:03:33;;;;;;;1.88;1.05;;;24.90;52.00;;;;;;5090759;28;20198;-50
2023/03/27 07:06:04;;;;;;;2.00;1.20;;;24.90;52.00;;;;;;5090449;28;20662;-52
2023/03/27 07:08:35;;;;;;;3.22;1.02;;;24.90;51.90;;;;;;5090420;28;20271;-52
2023/03/27 07:11:05;;;;;;;3.05;1.00;;;24.90;51.80;;;;;;5090909;28;20205;-50
2023/03/27 07:13:36;;;;;;;2.67;1.02;;;24.90;51.80;;;;;;5091141;28;20221;-52
2023/03/27 07:16:07;;;;;;;1.92;1.00;;;24.90;51.70;;;;;;5078276;28;20237;-48
2023/03/27 07:18:40;;;;;;;2.95;1.15;;;24.90;51.70;;;;;;5070602;28;20250;-49
2023/03/27 07:21:14;;;;;;;1.83;0.70;;;24.90;51.60;;;;;;5092716;28;20194;-49
2023/03/27 07:23:45;;;;;;;1.67;0.90;;;24.80;51.50;;;;;;5094806;28;20573;-53
2023/03/27 07:26:15;;;;;;;1.25;0.80;;;24.80;51.60;;;;;;5095426;28;20704;-50
2023/03/27 07:28:46;;;;;;;1.85;1.00;;;24.80;51.50;;;;;;5095126;28;20214;-48
2023/03/27 07:31:17;;;;;;;1.88;1.00;;;24.80;51.50;;;;;;5094693;28;20194;-51
2023/03/27 07:33:50;;;;;;;1.88;0.90;;;24.80;51.50;;;;;;5094648;28;20198;-54
2023/03/27 07:36:21;;;;;;;2.80;0.82;;;24.70;52.00;;;;;;5095079;28;20685;-50
2023/03/27 07:38:54;;;;;;;3.72;1.20;;;24.70;51.40;;;;;;5087616;28;20206;-50
2023/03/27 07:41:25;;;;;;;2.20;0.77;;;24.70;51.30;;;;;;5094186;28;20198;-50
2023/03/27 07:43:56;;;;;;;0.85;0.75;;;24.70;51.30;;;;;;5094262;28;20572;-48
2023/03/27 07:46:26;;;;;;;2.47;0.77;;;24.70;51.30;;;;;;5094890;28;20677;-54
2023/03/27 07:48:59;;;;;;;1.75;0.70;;;24.70;51.30;;;;;;5094446;28;20217;-49
2023/03/27 07:51:30;;;;;;;1.48;0.80;;;24.70;51.30;;;;;;5094767;28;20198;-48
2023/03/27 07:54:03;;;;;;;1.60;0.68;;;24.60;51.10;;;;;;5083722;28;20201;-49
2023/03/27 07:56:34;;;;;;;1.58;0.60;;;24.60;51.10;;;;;;5081152;28;20230;-51
2023/03/27 07:59:05;;;;;;;1.30;0.80;;;24.50;51.10;;;;;;5094171;28;20218;-48
2023/03/27 08:01:36;;;;;;;1.73;0.70;;;24.50;51.10;;;;;;5094242;28;20209;-53
2023/03/27 08:04:08;;;;;;;1.83;0.70;;;24.50;51.10;;;;;;5074274;28;20237;-49
2023/03/27 08:06:39;;;;;;;1.58;0.70;;;24.50;50.90;;;;;;5072739;28;20561;-51
2023/03/27 08:09:10;;;;;;;1.50;0.70;;;24.50;50.90;;;;;;5077720;28;20324;-47
2023/03/27 08:11:40;;;;;;;1.25;0.60;;;24.50;50.90;;;;;;5075351;28;20230;-49
2023/03/27 08:14:11;;;;;;;2.63;0.68;;;24.50;50.90;;;;;;5081097;28;20643;-52
2023/03/27 08:16:42;;;;;;;1.08;0.65;;;24.40;50.90;;;;;;5077182;28;20214;-52
2023/03/27 08:19:15;;;;;;;1.60;0.60;;;24.40;51.40;;;;;;5093677;28;20221;-54
2023/03/27 08:21:45;;;;;;;1.10;0.70;;;24.40;50.80;;;;;;5093855;28;20198;-52
2023/03/27 08:24:16;;;;;;;2.33;0.77;;;24.40;50.80;;;;;;5073183;28;20201;-50
2023/03/27 08:26:47;;;;;;;1.48;0.68;;;24.40;50.80;;;;;;5081925;28;20202;-49
2023/03/27 08:29:17;;;;;;;0.60;0.55;;;24.40;51.40;;;;;;5093650;28;20217;-48
2023/03/27 08:31:48;;;;;;;1.65;0.85;;;24.40;50.80;;;;;;5089915;28;20193;-55
2023/03/27 08:34:20;;;;;;;1.85;0.80;;;24.30;50.70;;;;;;5073032;28;20649;-49
2023/03/27 08:36:52;;;;;;;3.22;0.88;;;24.30;50.70;;;;;;5077323;28;20214;-52
2023/03/27 08:39:23;;;;;;;2.42;0.70;;;24.30;50.70;;;;;;5093471;28;20240;-51
2023/03/27 08:41:55;;;;;;;1.08;0.60;;;24.30;50.60;;;;;;5093100;28;20573;-49
2023/03/27 08:44:28;;;;;;;1.73;0.80;;;24.30;50.60;;;;;;5092962;28;20229;-51
2023/03/27 08:47:02;;;;;;;0.82;0.82;;;24.30;50.50;;;;;;5092329;28;20696;-48
2023/03/27 08:49:40;;;;;;;1.13;0.75;;;24.30;50.50;;;;;;5093225;28;20218;-52
2023/03/27 08:52:15;;;;;;;1.92;0.90;;;24.20;50.40;;;;;;5093414;28;20197;-54
2023/03/27 08:54:52;;;;;;;1.13;0.80;;;24.20;50.50;;;;;;5093058;28;20224;-49
2023/03/27 08:57:27;;;;;;;0.98;0.63;;;24.20;50.50;;;;;;5076906;28;20202;-50
2023/03/27 09:00:04;;;;;;;1.10;0.70;;;24.10;50.40;;;;;;5092840;28;20704;-50
2023/03/27 09:02:44;;;;;;;1.75;0.77;;;24.10;50.40;;;;;;5092748;28;20190;-50
2023/03/27 09:05:22;;;;;;;1.35;0.85;;;24.10;50.30;;;;;;5093242;28;20673;-49
2023/03/27 09:08:00;;;;;;;0.85;0.63;;;24.10;50.40;;;;;;5092994;28;20197;-49
2023/03/27 09:10:38;;;;;;;1.73;0.90;;;24.10;50.40;;;;;;5092955;28;20642;-49
2023/03/27 09:13:16;;;;;;;1.38;0.90;;;24.10;50.40;;;;;;5092696;28;20894;-50
2023/03/27 09:15:54;;;;;;;1.05;0.70;;;24.10;50.30;;;;;;5092635;28;20242;-48
2023/03/27 09:18:29;;;;;;;0.88;0.60;;;24.00;50.30;;;;;;5092667;28;20214;-49
2023/03/27 09:21:05;;;;;;;1.58;0.70;;;24.00;50.30;;;;;;5092253;28;20190;-49
2023/03/27 09:23:40;;;;;;;2.28;0.73;;;24.00;50.30;;;;;;5092248;28;20189;-49
2023/03/27 09:26:14;;;;;;;1.25;0.75;;;24.00;50.30;;;;;;5088884;28;20206;-53
2023/03/27 09:28:50;;;;;;;0.90;0.70;;;23.90;50.10;;;;;;5086879;28;20217;-55
2023/03/27 09:31:28;;;;;;;1.25;0.80;;;23.90;50.20;;;;;;5092236;28;20193;-57
2023/03/27 09:33:59;;;;;;;0.88;0.70;;;23.90;50.20;;;;;;5091746;28;20190;-53
2023/03/27 09:36:34;;;;;;;0.73;0.65;;;23.90;50.20;;;;;;5092477;28;20224;-51
2023/03/27 09:39:08;;;;;;;1.13;0.73;;;23.90;50.10;;;;;;5092357;28;20249;-53
2023/03/27 09:41:43;;;;;;;1.67;0.93;;;23.90;50.10;;;;;;5092243;28;20259;-52
2023/03/27 09:44:19;;;;;;;1.67;0.82;;;23.80;50.10;;;;;;5080144;28;20194;-51
2023/03/27 09:46:55;;;;;;;1.30;0.95;;;23.80;50.10;;;;;;5071400;28;20447;-49
2023/03/27 09:49:27;;;;;;;2.13;0.80;;;23.80;50.10;;;;;;5090133;28;20229;-48
2023/03/27 09:52:01;;;;;;;0.70;0.70;;;23.80;50.20;;;;;;5092251;28;20220;-50
2023/03/27 09:54:50;;;;;;;1.50;0.80;;;23.80;50.20;;;;;;5091684;28;20193;-49
2023/03/27 09:57:22;;;;;;;1.33;0.85;;;23.80;50.20;;;;;;5079502;28;20716;-49
2023/03/27 10:00:01;;;;;;;1.63;0.55;;;23.80;50.20;;;;;;5091738;28;20245;-52
2023/03/27 10:02:33;;;;;;;1.45;0.70;;;23.80;50.10;;;;;;5084039;28;20694;-50
2023/03/27 10:05:10;;;;;;;0.98;0.60;;;23.70;50.20;;;;;;5091579;28;20255;-49
2023/03/27 10:07:43;;;;;;;1.02;0.70;;;23.70;50.10;;;;;;5085674;28;20669;-52
2023/03/27 10:10:16;;;;;;;1.30;0.70;;;23.70;50.10;;;;;;5091575;28;20197;-52
2023/03/27 10:12:51;;;;;;;1.13;0.65;;;23.70;50.00;;;;;;5081818;28;20194;-52
2023/03/27 10:15:35;;;;;;;1.13;0.50;;;23.70;50.00;;;;;;5091314;28;20271;-48
2023/03/27 10:18:09;;;;;;;1.95;0.60;;;23.60;50.10;;;;;;5091550;28;20217;-52
2023/03/27 10:20:50;;;;;;;1.00;0.60;;;23.70;50.10;;;;;;5091490;28;20194;-53
2023/03/27 10:23:28;;;;;;;1.85;0.55;;;23.60;50.10;;;;;;5084403;28;20187;-51
2023/03/27 10:26:02;;;;;;;0.63;0.52;;;23.60;50.10;;;;;;5087831;28;20601;-50
2023/03/27 10:28:37;;;;;;;0.50;0.50;;;23.60;50.10;;;;;;5073698;28;20219;-55
2023/03/27 10:31:12;;;;;;;1.85;0.70;;;23.60;50.70;;;;;;5071009;28;20561;-54
2023/03/27 10:33:44;;;;;;;0.68;0.65;;;23.50;50.10;;;;;;5082263;28;20205;-50
2023/03/27 10:36:15;;;;;;;1.15;0.60;;;23.50;50.10;;;;;;5090037;28;20254;-48
2023/03/27 10:38:56;;;;;;;1.35;0.60;;;23.50;50.30;;;;;;5082126;28;20246;-53
2023/03/27 10:41:28;;;;;;;0.82;0.65;;;23.50;50.10;;;;;;5091497;28;20210;-52
2023/03/27 10:43:59;;;;;;;0.93;0.57;;;23.50;50.20;;;;;;5091209;28;20186;-49
2023/03/27 10:46:32;;;;;;;0.82;0.50;;;23.50;50.10;;;;;;5091238;28;20198;-50
2023/03/27 10:49:09;;;;;;;0.70;0.50;;;23.50;50.10;;;;;;5083092;28;20866;-50
2023/03/27 10:51:47;;;;;;;0.70;0.60;;;23.50;50.10;;;;;;5091578;28;20201;-52
2023/03/27 10:54:34;;;;;;;0.57;0.57;;;23.40;50.10;;;;;;5091500;28;20186;-53
2023/03/27 10:57:11;;;;;;;0.63;0.60;;;23.40;50.00;;;;;;5083899;28;20315;-50
2023/03/27 10:59:47;;;;;;;0.93;0.82;;;23.40;50.00;;;;;;5092959;28;20226;-51
2023/03/27 11:02:21;;;;;;;1.23;0.80;;;23.40;50.00;;;;;;5089683;28;20557;-56
2023/03/27 11:04:56;;;;;;;1.67;0.60;;;23.40;49.90;;;;;;5095340;28;20194;-49
2023/03/27 11:07:36;;;;;;;1.00;0.63;;;23.40;50.00;;;;;;5087657;28;20208;-53
2023/03/27 11:10:16;;;;;;;1.38;0.70;;;23.40;50.10;;;;;;5075115;28;20215;-51
2023/03/27 11:12:55;;;;;;;1.05;0.73;;;23.30;50.00;;;;;;5075859;28;20198;-54
2023/03/27 11:15:29;;;;;;;0.70;0.50;;;23.30;50.10;;;;;;5095167;28;20194;-56
2023/03/27 11:18:03;;;;;;;0.80;0.60;;;23.30;50.20;;;;;;5094797;28;20194;-51
2023/03/27 11:20:42;;;;;;;0.47;0.40;;;23.30;50.20;;;;;;5095155;28;20190;-51
2023/03/27 11:23:17;;;;;;;1.10;0.70;;;23.30;50.20;;;;;;5090417;28;20230;-52
2023/03/27 11:25:52;;;;;;;0.77;0.50;;;23.30;50.20;;;;;;5079581;28;20204;-51
2023/03/27 11:28:27;;;;;;;1.00;0.70;;;23.30;50.20;;;;;;5084245;28;20217;-52
2023/03/27 11:31:01;;;;;;;0.75;0.55;;;23.30;50.20;;;;;;5094886;28;20194;-51
2023/03/27 11:33:41;;;;;;;1.10;0.50;;;23.30;50.20;;;;;;5090037;28;20191;-51
2023/03/27 11:36:31;;;;;;;1.02;0.60;;;23.30;50.10;;;;;;5075348;28;20217;-48
2023/03/27 11:39:14;;;;;;;1.83;0.70;;;23.20;50.10;;;;;;5084322;28;20214;-53
2023/03/27 11:41:52;;;;;;;1.40;0.80;;;23.20;50.00;;;;;;5094823;28;20220;-52
2023/03/27 11:44:23;;;;;;;0.88;0.47;;;23.20;50.00;;;;;;5086993;28;20649;-55
2023/03/27 11:47:14;;;;;;;0.65;0.50;;;23.10;50.10;;;;;;5077006;28;20254;-55
2023/03/27 11:50:08;;;;;;;0.88;0.77;;;23.20;50.10;;;;;;5088329;28;20210;-50
2023/03/27 11:52:48;;;;;;;1.00;0.68;;;23.10;50.10;;;;;;5094359;28;20641;-50
2023/03/27 11:55:30;;;;;;;1.33;0.80;;;23.10;50.20;;;;;;5094361;28;20240;-53
2023/03/27 11:58:25;;;;;;;1.63;0.73;;;23.10;50.50;;;;;;5075491;28;20630;-54
2023/03/27 12:01:00;;;;;;;1.23;0.55;;;23.10;50.60;;;;;;5094352;28;20206;-53
2023/03/27 12:04:20;;;;;;;0.50;0.43;;;23.10;50.50;;;;;;5084219;28;20193;-53
2023/03/27 12:06:56;;;;;;;0.93;0.63;;;23.10;50.50;;;;;;5110873;28;20194;-51
2023/03/27 12:09:44;;;;;;;0.50;0.50;;;23.10;50.50;;;;;;5094158;28;20210;-52
2023/03/27 12:12:30;;;;;;;0.55;0.47;;;23.10;50.50;;;;;;5094384;28;20254;-54
2023/03/27 12:15:13;;;;;;;0.60;0.57;;;23.10;50.50;;;;;;5094063;28;20190;-54
2023/03/27 12:17:56;;;;;;;0.50;0.43;;;23.10;50.50;;;;;;5093251;28;20229;-54
2023/03/27 12:20:54;;;;;;;1.17;0.60;;;23.10;50.40;;;;;;5093862;28;20603;-54
2023/03/27 12:23:58;;;;;;;0.75;0.45;;;23.00;50.30;;;;;;5093297;28;20301;-54
2023/03/27 12:26:44;;;;;;;1.02;0.60;;;23.00;50.30;;;;;;5087852;28;20714;-53
2023/03/27 12:29:34;;;;;;;0.75;0.60;;;23.00;50.30;;;;;;5082329;28;20210;-53
2023/03/27 12:32:23;;;;;;;0.55;0.43;;;23.00;50.30;;;;;;5091639;28;20194;-53
2023/03/27 12:34:57;;;;;;;0.77;0.60;;;23.00;50.30;;;;;;5087166;28;20194;-55
2023/03/27 12:37:33;;;;;;;0.80;0.63;;;23.00;50.30;;;;;;5093171;28;20222;-54
2023/03/27 12:40:14;;;;;;;0.82;0.55;;;23.00;50.30;;;;;;5092980;28;20206;-54
2023/03/27 12:42:52;;;;;;;1.50;0.50;;;23.00;50.30;;;;;;5093319;28;20293;-53
2023/03/27 12:45:29;;;;;;;0.57;0.55;;;22.90;50.30;;;;;;5093349;28;20190;-54
2023/03/27 12:48:25;;;;;;;0.80;0.40;;;22.90;50.30;;;;;;5081281;28;20202;-55
2023/03/27 12:51:00;;;;;;;0.80;0.50;;;22.90;50.30;;;;;;5076837;28;20205;-53
2023/03/27 12:53:49;;;;;;;0.45;0.40;;;22.90;50.20;;;;;;5093647;28;20193;-52
2023/03/27 12:56:35;;;;;;;1.05;0.63;;;22.90;50.20;;;;;;5088079;28;20234;-52
2023/03/27 12:59:21;;;;;;;0.82;0.50;;;22.90;50.10;;;;;;5072290;28;20725;-52
2023/03/27 13:02:16;;;;;;;0.40;0.40;;;22.90;50.10;;;;;;5072802;28;20231;-54
2023/03/27 13:05:30;;;;;;;0.77;0.50;;;22.80;50.00;;;;;;5073281;28;20222;-54
2023/03/27 13:08:22;;;;;;;0.82;0.45;;;22.80;50.00;;;;;;5012694;28;20212;-55
2023/03/27 13:10:59;;;;;;;0.57;0.47;;;22.80;50.00;;;;;;5073347;28;20202;-51
2023/03/27 13:14:03;;;;;;;1.15;0.35;;;22.80;50.10;;;;;;5081350;28;20186;-54
2023/03/27 13:16:55;;;;;;;0.82;0.50;;;22.80;50.00;;;;;;5072028;28;20241;-54
2023/03/27 13:19:44;;;;;;;0.50;0.50;;;22.70;49.90;;;;;;5089805;28;20218;-54
2023/03/27 13:22:35;;;;;;;0.90;0.40;;;22.80;50.00;;;;;;5089415;28;20639;-54
2023/03/27 13:25:28;;;;;;;0.85;0.50;;;22.80;50.00;;;;;;5072390;28;20203;-52
2023/03/27 13:28:26;;;;;;;0.65;0.50;;;22.70;49.90;;;;;;5077961;28;20198;-54
2023/03/27 13:30:58;;;;;;;0.43;0.43;;;22.70;49.90;;;;;;5092599;28;20190;-55
2023/03/27 13:33:40;;;;;;;0.32;0.30;;;22.70;49.90;;;;;;5085986;28;20198;-52